sensor_id;sensor_type;location;lat;lon;timestamp;P1;durP1;ratioP1;P2;durP2;ratioP2
8435;SDS011;4255;48.730;9.156;2022-09-29T00:00:08;12.73;;;8.07;;
8435;SDS011;4255;48.730;9.156;2022-09-29T00:02:34;8.07;;;7.28;;
8435;SDS011;4255;48.730;9.156;2022-09-29T00:04:59;9.30;;;7.50;;
8435;SDS011;4255;48.730;9.156;2022-09-29T00:07:25;8.27;;;7.00;;
8435;SDS011;4255;48.730;9.156;2022-09-29T00:09:52;10.57;;;7.05;;
8435;SDS011;4255;48.730;9.156;2022-09-29T00:12:18;11.47;;;7.47;;
8435;SDS011;4255;48.730;9.156;2022-09-29T00:14:44;12.50;;;7.70;;
8435;SDS011;4255;48.730;9.156;2022-09-29T00:17:09;13.90;;;7.10;;
8435;SDS011;4255;48.730;9.156;2022-09-29T00:19:35;8.27;;;6.33;;
8435;SDS011;4255;48.730;9.156;2022-09-29T00:22:00;16.60;;;7.57;;
8435;SDS011;4255;48.730;9.156;2022-09-29T00:24:26;8.87;;;7.67;;
8435;SDS011;4255;48.730;9.156;2022-09-29T00:26:52;10.30;;;6.30;;
8435;SDS011;4255;48.730;9.156;2022-09-29T00:29:18;9.73;;;6.70;;
8435;SDS011;4255;48.730;9.156;2022-09-29T00:31:43;10.83;;;6.03;;
8435;SDS011;4255;48.730;9.156;2022-09-29T00:34:09;8.23;;;6.23;;
8435;SDS011;4255;48.730;9.156;2022-09-29T00:36:35;8.87;;;6.20;;
8435;SDS011;4255;48.730;9.156;2022-09-29T00:39:00;7.33;;;6.03;;
8435;SDS011;4255;48.730;9.156;2022-09-29T00:41:27;8.63;;;6.33;;
8435;SDS011;4255;48.730;9.156;2022-09-29T00:49:15;8.98;;;5.50;;
8435;SDS011;4255;48.730;9.156;2022-09-29T00:51:43;8.57;;;6.55;;
8435;SDS011;4255;48.730;9.156;2022-09-29T00:54:13;6.53;;;5.82;;
8435;SDS011;4255;48.730;9.156;2022-09-29T00:56:40;7.10;;;5.85;;
8435;SDS011;4255;48.730;9.156;2022-09-29T00:59:09;7.57;;;6.00;;
8435;SDS011;4255;48.730;9.156;2022-09-29T01:01:38;10.63;;;6.43;;
8435;SDS011;4255;48.730;9.156;2022-09-29T01:04:05;5.90;;;5.30;;
8435;SDS011;4255;48.730;9.156;2022-09-29T01:06:35;7.13;;;5.25;;
8435;SDS011;4255;48.730;9.156;2022-09-29T01:09:06;9.20;;;6.20;;
8435;SDS011;4255;48.730;9.156;2022-09-29T01:11:35;6.30;;;5.63;;
8435;SDS011;4255;48.730;9.156;2022-09-29T01:14:04;8.73;;;5.55;;
8435;SDS011;4255;48.730;9.156;2022-09-29T01:16:32;6.20;;;5.70;;
8435;SDS011;4255;48.730;9.156;2022-09-29T01:19:01;5.93;;;5.43;;
8435;SDS011;4255;48.730;9.156;2022-09-29T01:32:32;8.82;;;5.93;;
8435;SDS011;4255;48.730;9.156;2022-09-29T01:35:25;6.50;;;5.85;;
8435;SDS011;4255;48.730;9.156;2022-09-29T01:43:08;5.85;;;4.78;;
8435;SDS011;4255;48.730;9.156;2022-09-29T01:45:50;7.57;;;6.68;;
8435;SDS011;4255;48.730;9.156;2022-09-29T01:48:24;8.45;;;5.72;;
8435;SDS011;4255;48.730;9.156;2022-09-29T01:50:57;8.35;;;6.55;;
8435;SDS011;4255;48.730;9.156;2022-09-29T01:53:28;6.78;;;5.18;;
8435;SDS011;4255;48.730;9.156;2022-09-29T01:56:01;6.22;;;5.25;;
8435;SDS011;4255;48.730;9.156;2022-09-29T01:58:32;6.55;;;5.50;;
8435;SDS011;4255;48.730;9.156;2022-09-29T02:01:08;6.80;;;6.00;;
8435;SDS011;4255;48.730;9.156;2022-09-29T02:03:40;6.78;;;5.50;;
8435;SDS011;4255;48.730;9.156;2022-09-29T02:06:11;7.75;;;5.60;;
8435;SDS011;4255;48.730;9.156;2022-09-29T02:08:42;6.45;;;5.68;;
8435;SDS011;4255;48.730;9.156;2022-09-29T02:11:22;8.73;;;5.25;;
8435;SDS011;4255;48.730;9.156;2022-09-29T02:16:29;6.60;;;6.00;;
8435;SDS011;4255;48.730;9.156;2022-09-29T02:19:01;10.23;;;6.07;;
8435;SDS011;4255;48.730;9.156;2022-09-29T02:21:45;6.57;;;5.60;;
8435;SDS011;4255;48.730;9.156;2022-09-29T02:24:11;9.73;;;6.67;;
8435;SDS011;4255;48.730;9.156;2022-09-29T02:26:38;7.25;;;5.20;;
8435;SDS011;4255;48.730;9.156;2022-09-29T02:29:06;5.75;;;5.18;;
8435;SDS011;4255;48.730;9.156;2022-09-29T02:31:32;15.73;;;7.25;;
8435;SDS011;4255;48.730;9.156;2022-09-29T02:34:00;13.50;;;7.30;;
8435;SDS011;4255;48.730;9.156;2022-09-29T02:41:49;6.78;;;5.55;;
8435;SDS011;4255;48.730;9.156;2022-09-29T02:52:53;8.73;;;5.45;;
8435;SDS011;4255;48.730;9.156;2022-09-29T02:55:43;9.82;;;6.18;;
8435;SDS011;4255;48.730;9.156;2022-09-29T03:01:30;6.28;;;4.78;;
8435;SDS011;4255;48.730;9.156;2022-09-29T03:03:57;15.15;;;8.00;;
8435;SDS011;4255;48.730;9.156;2022-09-29T03:06:23;27.67;;;11.90;;
8435;SDS011;4255;48.730;9.156;2022-09-29T03:08:49;23.17;;;11.00;;
8435;SDS011;4255;48.730;9.156;2022-09-29T03:11:15;20.47;;;9.60;;
8435;SDS011;4255;48.730;9.156;2022-09-29T03:13:40;10.33;;;7.60;;
8435;SDS011;4255;48.730;9.156;2022-09-29T03:16:06;14.23;;;8.80;;
8435;SDS011;4255;48.730;9.156;2022-09-29T03:18:32;16.50;;;8.73;;
8435;SDS011;4255;48.730;9.156;2022-09-29T03:20:57;13.33;;;7.40;;
8435;SDS011;4255;48.730;9.156;2022-09-29T03:23:23;8.00;;;6.30;;
8435;SDS011;4255;48.730;9.156;2022-09-29T03:25:49;7.63;;;6.60;;
8435;SDS011;4255;48.730;9.156;2022-09-29T03:28:14;8.10;;;6.00;;
8435;SDS011;4255;48.730;9.156;2022-09-29T03:30:40;6.90;;;5.90;;
8435;SDS011;4255;48.730;9.156;2022-09-29T03:33:06;7.97;;;7.00;;
8435;SDS011;4255;48.730;9.156;2022-09-29T03:35:32;21.00;;;7.30;;
8435;SDS011;4255;48.730;9.156;2022-09-29T03:37:58;7.50;;;5.50;;
8435;SDS011;4255;48.730;9.156;2022-09-29T03:40:24;8.52;;;6.53;;
8435;SDS011;4255;48.730;9.156;2022-09-29T03:42:51;7.55;;;6.00;;
8435;SDS011;4255;48.730;9.156;2022-09-29T03:45:16;8.23;;;6.20;;
8435;SDS011;4255;48.730;9.156;2022-09-29T03:47:42;6.30;;;5.73;;
8435;SDS011;4255;48.730;9.156;2022-09-29T03:50:08;9.37;;;6.73;;
8435;SDS011;4255;48.730;9.156;2022-09-29T03:52:33;6.40;;;5.70;;
8435;SDS011;4255;48.730;9.156;2022-09-29T03:55:00;12.15;;;6.80;;
8435;SDS011;4255;48.730;9.156;2022-09-29T03:57:26;7.63;;;5.83;;
8435;SDS011;4255;48.730;9.156;2022-09-29T03:59:52;6.33;;;5.50;;
8435;SDS011;4255;48.730;9.156;2022-09-29T04:02:17;12.50;;;5.87;;
8435;SDS011;4255;48.730;9.156;2022-09-29T04:04:44;6.13;;;5.53;;
8435;SDS011;4255;48.730;9.156;2022-09-29T04:07:10;6.43;;;5.83;;
8435;SDS011;4255;48.730;9.156;2022-09-29T04:09:36;6.80;;;5.33;;
8435;SDS011;4255;48.730;9.156;2022-09-29T04:12:02;12.00;;;7.03;;
8435;SDS011;4255;48.730;9.156;2022-09-29T04:14:28;6.83;;;5.70;;
8435;SDS011;4255;48.730;9.156;2022-09-29T04:16:54;8.60;;;5.93;;
8435;SDS011;4255;48.730;9.156;2022-09-29T04:19:19;11.70;;;7.37;;
8435;SDS011;4255;48.730;9.156;2022-09-29T04:21:45;5.90;;;5.40;;
8435;SDS011;4255;48.730;9.156;2022-09-29T04:24:11;7.30;;;5.40;;
8435;SDS011;4255;48.730;9.156;2022-09-29T04:26:37;7.40;;;6.63;;
8435;SDS011;4255;48.730;9.156;2022-09-29T04:29:04;8.43;;;5.57;;
8435;SDS011;4255;48.730;9.156;2022-09-29T04:31:30;10.45;;;6.32;;
8435;SDS011;4255;48.730;9.156;2022-09-29T04:33:55;8.37;;;6.17;;
8435;SDS011;4255;48.730;9.156;2022-09-29T04:36:21;7.07;;;5.77;;
8435;SDS011;4255;48.730;9.156;2022-09-29T04:38:47;6.67;;;6.00;;
8435;SDS011;4255;48.730;9.156;2022-09-29T04:41:14;8.95;;;6.15;;
8435;SDS011;4255;48.730;9.156;2022-09-29T04:43:40;9.67;;;6.63;;
8435;SDS011;4255;48.730;9.156;2022-09-29T04:46:06;7.77;;;6.00;;
8435;SDS011;4255;48.730;9.156;2022-09-29T04:48:33;7.50;;;5.60;;
8435;SDS011;4255;48.730;9.156;2022-09-29T04:50:59;10.10;;;5.97;;
8435;SDS011;4255;48.730;9.156;2022-09-29T04:53:26;8.95;;;6.63;;
8435;SDS011;4255;48.730;9.156;2022-09-29T04:55:51;9.10;;;6.00;;
8435;SDS011;4255;48.730;9.156;2022-09-29T04:58:17;8.80;;;6.30;;
8435;SDS011;4255;48.730;9.156;2022-09-29T05:00:43;8.20;;;5.93;;
8435;SDS011;4255;48.730;9.156;2022-09-29T05:03:08;11.73;;;7.37;;
8435;SDS011;4255;48.730;9.156;2022-09-29T05:05:34;8.20;;;6.57;;
8435;SDS011;4255;48.730;9.156;2022-09-29T05:08:02;10.20;;;7.80;;
8435;SDS011;4255;48.730;9.156;2022-09-29T05:10:28;11.02;;;7.00;;
8435;SDS011;4255;48.730;9.156;2022-09-29T05:12:54;8.20;;;7.23;;
8435;SDS011;4255;48.730;9.156;2022-09-29T05:15:20;16.93;;;7.73;;
8435;SDS011;4255;48.730;9.156;2022-09-29T05:17:46;14.93;;;10.23;;
8435;SDS011;4255;48.730;9.156;2022-09-29T05:20:12;12.02;;;8.25;;
8435;SDS011;4255;48.730;9.156;2022-09-29T05:22:37;30.93;;;12.33;;
8435;SDS011;4255;48.730;9.156;2022-09-29T05:25:03;23.73;;;10.83;;
8435;SDS011;4255;48.730;9.156;2022-09-29T05:27:29;19.35;;;10.35;;
8435;SDS011;4255;48.730;9.156;2022-09-29T05:29:55;21.00;;;10.80;;
8435;SDS011;4255;48.730;9.156;2022-09-29T05:32:21;12.93;;;9.90;;
8435;SDS011;4255;48.730;9.156;2022-09-29T05:34:46;12.53;;;8.63;;
8435;SDS011;4255;48.730;9.156;2022-09-29T05:37:14;14.00;;;8.90;;
8435;SDS011;4255;48.730;9.156;2022-09-29T05:39:41;16.23;;;9.60;;
8435;SDS011;4255;48.730;9.156;2022-09-29T05:42:09;61.90;;;16.02;;
8435;SDS011;4255;48.730;9.156;2022-09-29T05:44:35;41.85;;;13.60;;
8435;SDS011;4255;48.730;9.156;2022-09-29T05:47:01;23.83;;;11.53;;
8435;SDS011;4255;48.730;9.156;2022-09-29T05:49:27;15.63;;;10.50;;
8435;SDS011;4255;48.730;9.156;2022-09-29T05:51:54;24.38;;;11.38;;
8435;SDS011;4255;48.730;9.156;2022-09-29T05:54:20;26.33;;;11.40;;
8435;SDS011;4255;48.730;9.156;2022-09-29T05:56:47;25.25;;;10.90;;
8435;SDS011;4255;48.730;9.156;2022-09-29T05:59:13;14.93;;;11.23;;
8435;SDS011;4255;48.730;9.156;2022-09-29T06:01:39;16.53;;;11.53;;
8435;SDS011;4255;48.730;9.156;2022-09-29T06:04:05;24.17;;;12.90;;
8435;SDS011;4255;48.730;9.156;2022-09-29T06:06:30;23.93;;;12.10;;
8435;SDS011;4255;48.730;9.156;2022-09-29T06:08:57;16.80;;;11.57;;
8435;SDS011;4255;48.730;9.156;2022-09-29T06:11:24;26.95;;;13.50;;
8435;SDS011;4255;48.730;9.156;2022-09-29T06:13:57;19.85;;;11.73;;
8435;SDS011;4255;48.730;9.156;2022-09-29T06:16:27;20.73;;;14.00;;
8435;SDS011;4255;48.730;9.156;2022-09-29T06:18:55;21.00;;;14.15;;
8435;SDS011;4255;48.730;9.156;2022-09-29T06:21:24;16.30;;;12.57;;
8435;SDS011;4255;48.730;9.156;2022-09-29T06:23:51;20.02;;;11.73;;
8435;SDS011;4255;48.730;9.156;2022-09-29T06:26:19;20.33;;;11.73;;
8435;SDS011;4255;48.730;9.156;2022-09-29T06:28:45;20.00;;;10.98;;
8435;SDS011;4255;48.730;9.156;2022-09-29T06:31:12;13.93;;;9.65;;
8435;SDS011;4255;48.730;9.156;2022-09-29T06:33:40;14.38;;;10.00;;
8435;SDS011;4255;48.730;9.156;2022-09-29T06:36:11;16.10;;;11.15;;
8435;SDS011;4255;48.730;9.156;2022-09-29T06:39:03;19.95;;;11.38;;
8435;SDS011;4255;48.730;9.156;2022-09-29T06:41:30;17.70;;;11.23;;
8435;SDS011;4255;48.730;9.156;2022-09-29T06:43:56;16.17;;;12.10;;
8435;SDS011;4255;48.730;9.156;2022-09-29T06:46:22;20.52;;;11.25;;
8435;SDS011;4255;48.730;9.156;2022-09-29T06:48:48;15.25;;;11.32;;
8435;SDS011;4255;48.730;9.156;2022-09-29T06:51:13;11.77;;;10.10;;
8435;SDS011;4255;48.730;9.156;2022-09-29T06:53:39;14.77;;;11.20;;
8435;SDS011;4255;48.730;9.156;2022-09-29T06:56:05;12.77;;;9.50;;
8435;SDS011;4255;48.730;9.156;2022-09-29T06:58:33;11.73;;;9.20;;
8435;SDS011;4255;48.730;9.156;2022-09-29T07:00:59;16.00;;;9.77;;
8435;SDS011;4255;48.730;9.156;2022-09-29T07:03:26;10.65;;;8.80;;
8435;SDS011;4255;48.730;9.156;2022-09-29T07:05:54;10.75;;;8.73;;
8435;SDS011;4255;48.730;9.156;2022-09-29T07:08:20;12.77;;;9.00;;
8435;SDS011;4255;48.730;9.156;2022-09-29T07:10:46;11.97;;;8.57;;
8435;SDS011;4255;48.730;9.156;2022-09-29T07:13:12;13.40;;;10.10;;
8435;SDS011;4255;48.730;9.156;2022-09-29T07:15:38;16.30;;;10.10;;
8435;SDS011;4255;48.730;9.156;2022-09-29T07:18:04;12.33;;;8.47;;
8435;SDS011;4255;48.730;9.156;2022-09-29T07:20:30;11.43;;;8.30;;
8435;SDS011;4255;48.730;9.156;2022-09-29T07:22:56;16.08;;;8.57;;
8435;SDS011;4255;48.730;9.156;2022-09-29T07:25:22;11.80;;;8.40;;
8435;SDS011;4255;48.730;9.156;2022-09-29T07:27:48;16.20;;;8.60;;
8435;SDS011;4255;48.730;9.156;2022-09-29T07:30:15;13.95;;;8.82;;
8435;SDS011;4255;48.730;9.156;2022-09-29T07:32:41;12.23;;;10.40;;
8435;SDS011;4255;48.730;9.156;2022-09-29T07:35:07;11.20;;;7.80;;
8435;SDS011;4255;48.730;9.156;2022-09-29T07:37:33;9.97;;;7.80;;
8435;SDS011;4255;48.730;9.156;2022-09-29T07:39:59;10.57;;;8.30;;
8435;SDS011;4255;48.730;9.156;2022-09-29T07:42:26;9.60;;;7.83;;
8435;SDS011;4255;48.730;9.156;2022-09-29T07:44:53;11.18;;;7.07;;
8435;SDS011;4255;48.730;9.156;2022-09-29T07:47:19;9.40;;;7.15;;
8435;SDS011;4255;48.730;9.156;2022-09-29T07:49:45;22.60;;;13.90;;
8435;SDS011;4255;48.730;9.156;2022-09-29T07:52:13;7.97;;;7.17;;
8435;SDS011;4255;48.730;9.156;2022-09-29T07:54:39;8.80;;;7.22;;
8435;SDS011;4255;48.730;9.156;2022-09-29T07:57:05;14.77;;;7.47;;
8435;SDS011;4255;48.730;9.156;2022-09-29T07:59:31;9.63;;;6.80;;
8435;SDS011;4255;48.730;9.156;2022-09-29T08:01:56;11.80;;;7.50;;
8435;SDS011;4255;48.730;9.156;2022-09-29T08:04:22;8.43;;;7.43;;
8435;SDS011;4255;48.730;9.156;2022-09-29T08:06:49;7.13;;;5.97;;
8435;SDS011;4255;48.730;9.156;2022-09-29T08:09:14;6.43;;;5.87;;
8435;SDS011;4255;48.730;9.156;2022-09-29T08:11:41;10.47;;;6.40;;
8435;SDS011;4255;48.730;9.156;2022-09-29T08:14:07;8.20;;;5.32;;
8435;SDS011;4255;48.730;9.156;2022-09-29T08:16:35;12.60;;;5.78;;
8435;SDS011;4255;48.730;9.156;2022-09-29T08:19:02;7.63;;;5.45;;
8435;SDS011;4255;48.730;9.156;2022-09-29T08:21:28;4.97;;;4.45;;
8435;SDS011;4255;48.730;9.156;2022-09-29T08:23:55;5.32;;;4.43;;
8435;SDS011;4255;48.730;9.156;2022-09-29T08:26:21;6.55;;;4.13;;
8435;SDS011;4255;48.730;9.156;2022-09-29T08:28:47;8.00;;;6.25;;
8435;SDS011;4255;48.730;9.156;2022-09-29T08:31:17;6.70;;;5.30;;
8435;SDS011;4255;48.730;9.156;2022-09-29T08:33:48;5.70;;;5.10;;
8435;SDS011;4255;48.730;9.156;2022-09-29T08:36:16;7.37;;;4.97;;
8435;SDS011;4255;48.730;9.156;2022-09-29T08:38:43;6.57;;;4.63;;
8435;SDS011;4255;48.730;9.156;2022-09-29T08:44:00;5.90;;;5.30;;
8435;SDS011;4255;48.730;9.156;2022-09-29T08:46:36;6.73;;;5.03;;
8435;SDS011;4255;48.730;9.156;2022-09-29T08:49:05;6.10;;;4.60;;
8435;SDS011;4255;48.730;9.156;2022-09-29T08:51:39;4.97;;;4.57;;
8435;SDS011;4255;48.730;9.156;2022-09-29T08:54:28;7.23;;;4.10;;
8435;SDS011;4255;48.730;9.156;2022-09-29T08:56:56;6.70;;;4.83;;
8435;SDS011;4255;48.730;9.156;2022-09-29T08:59:23;4.50;;;4.10;;
8435;SDS011;4255;48.730;9.156;2022-09-29T09:04:44;8.70;;;5.50;;
8435;SDS011;4255;48.730;9.156;2022-09-29T09:07:36;4.80;;;4.27;;
8435;SDS011;4255;48.730;9.156;2022-09-29T09:16:23;4.13;;;3.83;;
8435;SDS011;4255;48.730;9.156;2022-09-29T09:22:12;3.80;;;3.50;;
8435;SDS011;4255;48.730;9.156;2022-09-29T09:27:45;3.57;;;3.33;;
8435;SDS011;4255;48.730;9.156;2022-09-29T09:30:14;3.90;;;3.60;;
8435;SDS011;4255;48.730;9.156;2022-09-29T09:32:52;3.87;;;3.20;;
8435;SDS011;4255;48.730;9.156;2022-09-29T09:38:43;3.80;;;3.33;;
8435;SDS011;4255;48.730;9.156;2022-09-29T09:41:05;11.00;;;3.60;;
8435;SDS011;4255;48.730;9.156;2022-09-29T09:43:36;3.30;;;3.10;;
8435;SDS011;4255;48.730;9.156;2022-09-29T09:46:12;3.40;;;3.20;;
8435;SDS011;4255;48.730;9.156;2022-09-29T09:53:57;2.93;;;2.73;;
8435;SDS011;4255;48.730;9.156;2022-09-29T10:01:39;3.20;;;2.90;;
8435;SDS011;4255;48.730;9.156;2022-09-29T10:04:04;3.17;;;2.97;;
8435;SDS011;4255;48.730;9.156;2022-09-29T10:06:30;3.83;;;3.10;;
8435;SDS011;4255;48.730;9.156;2022-09-29T10:08:56;3.30;;;3.00;;
8435;SDS011;4255;48.730;9.156;2022-09-29T10:11:23;4.97;;;4.00;;
8435;SDS011;4255;48.730;9.156;2022-09-29T10:13:56;4.00;;;3.30;;
8435;SDS011;4255;48.730;9.156;2022-09-29T10:16:36;4.07;;;3.73;;
8435;SDS011;4255;48.730;9.156;2022-09-29T10:19:10;3.00;;;2.70;;
8435;SDS011;4255;48.730;9.156;2022-09-29T10:21:42;3.33;;;2.60;;
8435;SDS011;4255;48.730;9.156;2022-09-29T10:24:27;7.63;;;2.70;;
8435;SDS011;4255;48.730;9.156;2022-09-29T10:26:58;5.70;;;4.43;;
8435;SDS011;4255;48.730;9.156;2022-09-29T10:29:41;3.30;;;2.70;;
8435;SDS011;4255;48.730;9.156;2022-09-29T10:32:14;2.70;;;2.50;;
8435;SDS011;4255;48.730;9.156;2022-09-29T10:34:46;3.87;;;2.50;;
8435;SDS011;4255;48.730;9.156;2022-09-29T10:39:44;3.77;;;2.47;;
8435;SDS011;4255;48.730;9.156;2022-09-29T10:45:12;2.10;;;2.00;;
8435;SDS011;4255;48.730;9.156;2022-09-29T10:47:40;2.80;;;2.03;;
8435;SDS011;4255;48.730;9.156;2022-09-29T10:50:16;4.53;;;2.53;;
8435;SDS011;4255;48.730;9.156;2022-09-29T10:55:32;3.50;;;2.90;;
8435;SDS011;4255;48.730;9.156;2022-09-29T10:58:03;2.53;;;2.33;;
8435;SDS011;4255;48.730;9.156;2022-09-29T11:00:44;3.10;;;2.40;;
8435;SDS011;4255;48.730;9.156;2022-09-29T11:03:27;2.83;;;2.20;;
8435;SDS011;4255;48.730;9.156;2022-09-29T11:08:20;4.40;;;2.40;;
8435;SDS011;4255;48.730;9.156;2022-09-29T11:11:01;2.83;;;2.03;;
8435;SDS011;4255;48.730;9.156;2022-09-29T11:13:43;3.93;;;2.50;;
8435;SDS011;4255;48.730;9.156;2022-09-29T11:16:14;2.77;;;2.30;;
8435;SDS011;4255;48.730;9.156;2022-09-29T11:18:42;6.13;;;2.50;;
8435;SDS011;4255;48.730;9.156;2022-09-29T11:26:35;5.17;;;2.57;;
8435;SDS011;4255;48.730;9.156;2022-09-29T11:34:52;2.60;;;2.40;;
8435;SDS011;4255;48.730;9.156;2022-09-29T11:37:33;3.30;;;2.50;;
8435;SDS011;4255;48.730;9.156;2022-09-29T11:40:18;5.27;;;2.70;;
8435;SDS011;4255;48.730;9.156;2022-09-29T11:46:05;6.40;;;2.40;;
8435;SDS011;4255;48.730;9.156;2022-09-29T11:53:42;2.60;;;2.40;;
8435;SDS011;4255;48.730;9.156;2022-09-29T11:56:40;4.27;;;2.93;;
8435;SDS011;4255;48.730;9.156;2022-09-29T12:10:31;2.73;;;1.93;;
8435;SDS011;4255;48.730;9.156;2022-09-29T12:16:12;4.10;;;2.20;;
8435;SDS011;4255;48.730;9.156;2022-09-29T12:18:46;2.60;;;2.40;;
8435;SDS011;4255;48.730;9.156;2022-09-29T12:21:16;3.13;;;2.00;;
8435;SDS011;4255;48.730;9.156;2022-09-29T12:24:02;5.07;;;2.37;;
8435;SDS011;4255;48.730;9.156;2022-09-29T12:26:31;3.17;;;2.87;;
8435;SDS011;4255;48.730;9.156;2022-09-29T12:28:59;1.90;;;1.80;;
8435;SDS011;4255;48.730;9.156;2022-09-29T12:31:36;3.43;;;2.20;;
8435;SDS011;4255;48.730;9.156;2022-09-29T12:37:04;1.97;;;1.87;;
8435;SDS011;4255;48.730;9.156;2022-09-29T12:45:25;2.17;;;2.07;;
8435;SDS011;4255;48.730;9.156;2022-09-29T12:51:11;2.70;;;2.07;;
8435;SDS011;4255;48.730;9.156;2022-09-29T12:54:11;2.23;;;2.03;;
8435;SDS011;4255;48.730;9.156;2022-09-29T12:56:42;3.60;;;1.87;;
8435;SDS011;4255;48.730;9.156;2022-09-29T13:01:42;3.40;;;2.03;;
8435;SDS011;4255;48.730;9.156;2022-09-29T13:04:30;2.23;;;2.13;;
8435;SDS011;4255;48.730;9.156;2022-09-29T13:16:00;2.20;;;2.00;;
8435;SDS011;4255;48.730;9.156;2022-09-29T13:21:33;1.97;;;1.87;;
8435;SDS011;4255;48.730;9.156;2022-09-29T13:24:35;2.10;;;2.00;;
8435;SDS011;4255;48.730;9.156;2022-09-29T13:27:10;6.60;;;3.07;;
8435;SDS011;4255;48.730;9.156;2022-09-29T13:30:42;2.93;;;2.73;;
8435;SDS011;4255;48.730;9.156;2022-09-29T13:33:01;2.80;;;2.60;;
8435;SDS011;4255;48.730;9.156;2022-09-29T13:35:41;3.33;;;2.70;;
8435;SDS011;4255;48.730;9.156;2022-09-29T13:38:12;2.40;;;2.20;;
8435;SDS011;4255;48.730;9.156;2022-09-29T13:41:14;2.30;;;2.10;;
8435;SDS011;4255;48.730;9.156;2022-09-29T13:44:04;2.43;;;2.23;;
8435;SDS011;4255;48.730;9.156;2022-09-29T13:46:42;4.03;;;2.43;;
8435;SDS011;4255;48.730;9.156;2022-09-29T13:59:36;2.87;;;2.53;;
8435;SDS011;4255;48.730;9.156;2022-09-29T14:02:40;2.57;;;2.37;;
8435;SDS011;4255;48.730;9.156;2022-09-29T14:04:57;2.10;;;2.00;;
8435;SDS011;4255;48.730;9.156;2022-09-29T14:07:43;3.00;;;2.63;;
8435;SDS011;4255;48.730;9.156;2022-09-29T14:12:52;3.10;;;2.80;;
8435;SDS011;4255;48.730;9.156;2022-09-29T14:15:25;5.17;;;2.90;;
8435;SDS011;4255;48.730;9.156;2022-09-29T14:17:57;3.40;;;2.40;;
8435;SDS011;4255;48.730;9.156;2022-09-29T14:20:27;4.10;;;2.03;;
8435;SDS011;4255;48.730;9.156;2022-09-29T14:23:03;6.33;;;2.70;;
8435;SDS011;4255;48.730;9.156;2022-09-29T14:28:08;2.70;;;2.50;;
8435;SDS011;4255;48.730;9.156;2022-09-29T14:30:42;3.00;;;2.67;;
8435;SDS011;4255;48.730;9.156;2022-09-29T14:33:28;3.80;;;2.43;;
8435;SDS011;4255;48.730;9.156;2022-09-29T14:36:02;3.23;;;2.40;;
8435;SDS011;4255;48.730;9.156;2022-09-29T14:38:42;5.87;;;3.00;;
8435;SDS011;4255;48.730;9.156;2022-09-29T14:43:39;6.93;;;4.10;;
8435;SDS011;4255;48.730;9.156;2022-09-29T14:58:29;4.27;;;3.47;;
8435;SDS011;4255;48.730;9.156;2022-09-29T15:03:48;9.60;;;3.50;;
8435;SDS011;4255;48.730;9.156;2022-09-29T15:06:19;10.43;;;3.27;;
8435;SDS011;4255;48.730;9.156;2022-09-29T15:08:59;4.17;;;2.70;;
8435;SDS011;4255;48.730;9.156;2022-09-29T15:13:56;3.63;;;3.33;;
8435;SDS011;4255;48.730;9.156;2022-09-29T15:19:01;9.10;;;4.33;;
8435;SDS011;4255;48.730;9.156;2022-09-29T15:24:14;13.50;;;7.73;;
8435;SDS011;4255;48.730;9.156;2022-09-29T15:26:46;8.23;;;5.77;;
8435;SDS011;4255;48.730;9.156;2022-09-29T15:29:13;5.13;;;3.40;;
8435;SDS011;4255;48.730;9.156;2022-09-29T15:31:42;6.63;;;3.70;;
8435;SDS011;4255;48.730;9.156;2022-09-29T15:34:11;8.43;;;3.90;;
8435;SDS011;4255;48.730;9.156;2022-09-29T15:36:45;4.10;;;3.40;;
8435;SDS011;4255;48.730;9.156;2022-09-29T15:42:02;7.90;;;4.40;;
8435;SDS011;4255;48.730;9.156;2022-09-29T15:44:39;4.30;;;3.90;;
8435;SDS011;4255;48.730;9.156;2022-09-29T15:47:17;4.33;;;3.90;;
8435;SDS011;4255;48.730;9.156;2022-09-29T15:49:50;4.93;;;3.87;;
8435;SDS011;4255;48.730;9.156;2022-09-29T15:52:17;3.50;;;3.20;;
8435;SDS011;4255;48.730;9.156;2022-09-29T15:54:47;3.40;;;3.10;;
8435;SDS011;4255;48.730;9.156;2022-09-29T16:05:28;6.10;;;4.47;;
8435;SDS011;4255;48.730;9.156;2022-09-29T16:08:06;9.63;;;4.70;;
8435;SDS011;4255;48.730;9.156;2022-09-29T16:10:38;8.33;;;4.67;;
8435;SDS011;4255;48.730;9.156;2022-09-29T16:13:26;7.80;;;4.87;;
8435;SDS011;4255;48.730;9.156;2022-09-29T16:15:56;4.43;;;3.97;;
8435;SDS011;4255;48.730;9.156;2022-09-29T16:18:31;4.30;;;3.90;;
8435;SDS011;4255;48.730;9.156;2022-09-29T16:21:09;5.40;;;4.13;;
8435;SDS011;4255;48.730;9.156;2022-09-29T16:23:47;9.70;;;4.57;;
8435;SDS011;4255;48.730;9.156;2022-09-29T16:31:41;5.87;;;4.23;;
8435;SDS011;4255;48.730;9.156;2022-09-29T16:34:20;6.50;;;5.10;;
8435;SDS011;4255;48.730;9.156;2022-09-29T16:36:49;4.53;;;4.13;;
8435;SDS011;4255;48.730;9.156;2022-09-29T16:39:26;7.30;;;5.20;;
8435;SDS011;4255;48.730;9.156;2022-09-29T16:41:55;5.07;;;4.20;;
8435;SDS011;4255;48.730;9.156;2022-09-29T16:44:27;6.63;;;4.50;;
8435;SDS011;4255;48.730;9.156;2022-09-29T16:49:23;7.30;;;4.30;;
8435;SDS011;4255;48.730;9.156;2022-09-29T16:51:51;10.03;;;4.10;;
8435;SDS011;4255;48.730;9.156;2022-09-29T16:54:27;6.00;;;4.63;;
8435;SDS011;4255;48.730;9.156;2022-09-29T16:59:51;4.80;;;4.40;;
8435;SDS011;4255;48.730;9.156;2022-09-29T17:02:18;5.40;;;4.43;;
8435;SDS011;4255;48.730;9.156;2022-09-29T17:04:46;5.43;;;4.47;;
8435;SDS011;4255;48.730;9.156;2022-09-29T17:07:16;6.07;;;4.43;;
8435;SDS011;4255;48.730;9.156;2022-09-29T17:09:44;7.57;;;4.80;;
8435;SDS011;4255;48.730;9.156;2022-09-29T17:12:12;4.40;;;4.00;;
8435;SDS011;4255;48.730;9.156;2022-09-29T17:14:39;7.40;;;4.10;;
8435;SDS011;4255;48.730;9.156;2022-09-29T17:17:04;5.60;;;4.17;;
8435;SDS011;4255;48.730;9.156;2022-09-29T17:19:30;6.23;;;4.10;;
8435;SDS011;4255;48.730;9.156;2022-09-29T17:21:56;5.75;;;4.45;;
8435;SDS011;4255;48.730;9.156;2022-09-29T17:24:23;6.43;;;3.77;;
8435;SDS011;4255;48.730;9.156;2022-09-29T17:26:49;4.27;;;3.87;;
8435;SDS011;4255;48.730;9.156;2022-09-29T17:29:53;4.57;;;3.95;;
8435;SDS011;4255;48.730;9.156;2022-09-29T17:32:18;5.13;;;3.97;;
8435;SDS011;4255;48.730;9.156;2022-09-29T17:34:44;5.07;;;4.47;;
8435;SDS011;4255;48.730;9.156;2022-09-29T17:37:10;7.00;;;4.10;;
8435;SDS011;4255;48.730;9.156;2022-09-29T17:39:37;5.68;;;5.18;;
8435;SDS011;4255;48.730;9.156;2022-09-29T17:42:02;6.00;;;4.40;;
8435;SDS011;4255;48.730;9.156;2022-09-29T17:44:28;4.47;;;3.90;;
8435;SDS011;4255;48.730;9.156;2022-09-29T17:46:53;5.73;;;4.20;;
8435;SDS011;4255;48.730;9.156;2022-09-29T17:49:19;4.57;;;4.17;;
8435;SDS011;4255;48.730;9.156;2022-09-29T17:51:44;4.87;;;4.47;;
8435;SDS011;4255;48.730;9.156;2022-09-29T17:54:10;7.37;;;4.80;;
8435;SDS011;4255;48.730;9.156;2022-09-29T17:56:38;6.03;;;5.47;;
8435;SDS011;4255;48.730;9.156;2022-09-29T17:59:05;6.75;;;6.00;;
8435;SDS011;4255;48.730;9.156;2022-09-29T18:01:32;7.70;;;6.32;;
8435;SDS011;4255;48.730;9.156;2022-09-29T18:03:59;8.65;;;6.05;;
8435;SDS011;4255;48.730;9.156;2022-09-29T18:06:25;11.18;;;7.32;;
8435;SDS011;4255;48.730;9.156;2022-09-29T18:08:52;11.13;;;8.90;;
8435;SDS011;4255;48.730;9.156;2022-09-29T18:11:19;10.43;;;8.73;;
8435;SDS011;4255;48.730;9.156;2022-09-29T18:13:47;12.75;;;9.88;;
8435;SDS011;4255;48.730;9.156;2022-09-29T18:16:15;12.73;;;9.50;;
8435;SDS011;4255;48.730;9.156;2022-09-29T18:18:43;12.95;;;9.20;;
8435;SDS011;4255;48.730;9.156;2022-09-29T18:21:09;12.20;;;9.13;;
8435;SDS011;4255;48.730;9.156;2022-09-29T18:23:35;10.45;;;9.25;;
8435;SDS011;4255;48.730;9.156;2022-09-29T18:26:01;12.20;;;7.97;;
8435;SDS011;4255;48.730;9.156;2022-09-29T18:28:29;7.88;;;7.10;;
8435;SDS011;4255;48.730;9.156;2022-09-29T18:31:40;7.27;;;6.57;;
8435;SDS011;4255;48.730;9.156;2022-09-29T18:33:43;9.73;;;8.25;;
8435;SDS011;4255;48.730;9.156;2022-09-29T18:36:09;14.87;;;8.53;;
8435;SDS011;4255;48.730;9.156;2022-09-29T18:38:35;10.70;;;9.60;;
8435;SDS011;4255;48.730;9.156;2022-09-29T18:41:01;11.57;;;8.60;;
8435;SDS011;4255;48.730;9.156;2022-09-29T18:43:26;8.47;;;7.00;;
8435;SDS011;4255;48.730;9.156;2022-09-29T18:45:54;9.25;;;8.45;;
8435;SDS011;4255;48.730;9.156;2022-09-29T18:48:20;13.00;;;8.60;;
8435;SDS011;4255;48.730;9.156;2022-09-29T18:50:46;14.27;;;8.40;;
8435;SDS011;4255;48.730;9.156;2022-09-29T18:53:15;8.43;;;7.57;;